Time;durP1;ratioP1;P1;durP2;ratioP2;P2;SDS_P1;SDS_P2;PMS_P1;PMS_P2;Temp;Humidity;BMP_temperature;BMP_pressure;BME280_temperature;BME280_humidity;BME280_pressure;Samples;Min_cycle;Max_cycle;Signal;HPM_P1;HPM_P2
2023/09/09 00:01:36;;;;;;;10.80;7.70;;;22.50;81.60;;;;;;7398510;19;19956;-72
2023/09/09 00:04:03;;;;;;;10.35;7.97;;;22.50;81.50;;;;;;7398744;19;19918;-72
2023/09/09 00:06:28;;;;;;;12.13;8.70;;;22.50;81.80;;;;;;7394920;19;20336;-72
2023/09/09 00:08:54;;;;;;;9.73;7.57;;;22.40;81.90;;;;;;7399182;19;19926;-72
2023/09/09 00:11:20;;;;;;;10.85;7.80;;;22.40;82.00;;;;;;7397383;19;20402;-73
2023/09/09 00:13:46;;;;;;;9.85;7.85;;;22.40;82.40;;;;;;7376875;19;20477;-73
2023/09/09 00:16:12;;;;;;;10.18;9.00;;;22.40;82.50;;;;;;7396260;19;19915;-72
2023/09/09 00:18:38;;;;;;;11.40;9.25;;;22.40;82.90;;;;;;7396504;19;19931;-73
2023/09/09 00:21:05;;;;;;;11.63;9.93;;;22.50;83.60;;;;;;7396922;19;19919;-72
2023/09/09 00:23:31;;;;;;;11.75;9.07;;;22.40;84.20;;;;;;7405127;19;19926;-74
2023/09/09 00:25:57;;;;;;;13.50;9.65;;;22.40;84.30;;;;;;7402627;19;19957;-72
2023/09/09 00:28:23;;;;;;;14.23;9.90;;;22.40;84.40;;;;;;7403064;19;19922;-73
2023/09/09 00:30:49;;;;;;;13.02;9.65;;;22.40;84.90;;;;;;7400725;19;20015;-73
2023/09/09 00:33:15;;;;;;;13.23;10.93;;;22.30;84.80;;;;;;7402162;19;19929;-73
2023/09/09 00:35:41;;;;;;;14.50;10.50;;;22.30;85.00;;;;;;7402203;19;19922;-72
2023/09/09 00:38:09;;;;;;;13.57;10.00;;;22.30;85.50;;;;;;7401130;19;19919;-72
2023/09/09 00:40:35;;;;;;;12.88;10.52;;;22.30;85.60;;;;;;7403847;19;19925;-72
2023/09/09 00:43:01;;;;;;;;;;;22.30;85.50;;;;;;7403618;19;19923;-72
2023/09/09 00:45:28;;;;;;;15.20;11.07;;;22.30;85.80;;;;;;7403585;19;19933;-73
2023/09/09 00:47:55;;;;;;;17.40;11.60;;;22.30;86.00;;;;;;7403415;19;19968;-73
2023/09/09 00:50:22;;;;;;;15.18;10.70;;;22.30;86.10;;;;;;7368258;19;20335;-73
2023/09/09 00:52:48;;;;;;;13.15;10.48;;;22.30;86.30;;;;;;7404021;19;19922;-72
2023/09/09 00:55:14;;;;;;;13.90;11.38;;;22.30;86.70;;;;;;7400136;19;19994;-72
2023/09/09 00:57:40;;;;;;;16.75;12.25;;;22.30;86.70;;;;;;7400723;19;19911;-73
2023/09/09 01:00:10;;;;;;;15.05;10.90;;;22.20;86.90;;;;;;7399969;19;20339;-73
2023/09/09 01:02:40;;;;;;;14.77;11.68;;;22.20;87.20;;;;;;7401374;19;19915;-73
2023/09/09 01:05:07;;;;;;;14.80;11.32;;;22.20;87.10;;;;;;7401055;19;19914;-71
2023/09/09 01:07:49;;;;;;;11.77;9.75;;;22.20;87.20;;;;;;7402795;19;20239;-72
2023/09/09 01:10:17;;;;;;;13.55;10.93;;;22.10;87.00;;;;;;7400685;19;19915;-74
2023/09/09 01:12:43;;;;;;;16.92;12.30;;;22.00;87.20;;;;;;7401602;19;19907;-72
2023/09/09 01:15:10;;;;;;;13.80;10.90;;;22.00;87.80;;;;;;7400921;19;19926;-73
2023/09/09 01:17:36;;;;;;;14.40;12.48;;;22.00;87.90;;;;;;7401997;19;19915;-72
2023/09/09 01:20:12;;;;;;;16.90;11.65;;;22.00;87.90;;;;;;7400536;19;19926;-72
2023/09/09 01:22:39;;;;;;;16.58;12.25;;;21.90;88.00;;;;;;7369764;19;20036;-72
2023/09/09 01:25:06;;;;;;;15.48;11.23;;;21.80;88.30;;;;;;7402257;19;20240;-71
2023/09/09 01:27:32;;;;;;;14.32;11.43;;;21.80;88.80;;;;;;7403922;19;19919;-72
2023/09/09 01:29:58;;;;;;;14.68;10.45;;;21.90;88.10;;;;;;7403127;19;19929;-72
2023/09/09 01:32:25;;;;;;;15.65;11.00;;;21.90;87.60;;;;;;7401069;19;19914;-72
2023/09/09 01:34:51;;;;;;;12.52;9.95;;;21.90;87.20;;;;;;7401774;19;20369;-73
2023/09/09 01:37:17;;;;;;;13.30;10.93;;;22.00;87.00;;;;;;7402906;19;19918;-73
2023/09/09 01:39:43;;;;;;;13.95;10.45;;;21.90;86.70;;;;;;7399629;19;19907;-72
2023/09/09 01:42:09;;;;;;;15.35;11.77;;;21.80;87.00;;;;;;7400670;19;19915;-72
2023/09/09 01:44:35;;;;;;;14.40;12.07;;;21.80;87.30;;;;;;7402139;19;20465;-72
2023/09/09 01:47:01;;;;;;;13.13;11.30;;;21.80;87.80;;;;;;7400760;19;19923;-72
2023/09/09 01:49:27;;;;;;;13.10;11.07;;;21.70;87.90;;;;;;7398427;19;19915;-72
2023/09/09 01:51:53;;;;;;;13.90;11.55;;;21.60;88.10;;;;;;7401765;19;20428;-73
2023/09/09 01:54:19;;;;;;;13.55;11.32;;;21.60;88.20;;;;;;7400812;19;19979;-73
2023/09/09 01:56:44;;;;;;;13.55;10.82;;;21.50;88.80;;;;;;7401603;19;20332;-73
2023/09/09 01:59:10;;;;;;;15.27;11.20;;;21.50;89.30;;;;;;7399102;19;20496;-74
2023/09/09 02:01:36;;;;;;;16.00;11.43;;;21.60;89.40;;;;;;7401169;19;20281;-72
2023/09/09 02:04:02;;;;;;;17.02;13.40;;;21.60;89.10;;;;;;7400090;19;19938;-73
2023/09/09 02:06:28;;;;;;;16.55;12.85;;;21.60;89.00;;;;;;7403190;19;20335;-73
2023/09/09 02:08:54;;;;;;;17.90;12.90;;;21.70;89.00;;;;;;7398130;19;19915;-73
2023/09/09 02:11:20;;;;;;;16.88;13.80;;;21.60;89.20;;;;;;7398993;19;20362;-73
2023/09/09 02:13:45;;;;;;;17.52;14.30;;;21.70;89.70;;;;;;7400573;19;20259;-73
2023/09/09 02:16:11;;;;;;;17.58;12.77;;;21.70;89.50;;;;;;7400801;19;20264;-73
2023/09/09 02:18:37;;;;;;;15.70;13.20;;;21.60;89.50;;;;;;7398467;19;19918;-72
2023/09/09 02:21:05;;;;;;;17.85;13.07;;;21.60;89.90;;;;;;7400422;19;19922;-74
2023/09/09 02:23:31;;;;;;;21.35;13.23;;;21.50;89.80;;;;;;7396970;19;19922;-72
2023/09/09 02:25:57;;;;;;;16.73;13.02;;;21.60;89.90;;;;;;7401629;19;19926;-73
2023/09/09 02:28:23;;;;;;;15.52;12.77;;;21.50;89.60;;;;;;7397357;19;20305;-72
2023/09/09 02:30:49;;;;;;;;;;;21.50;89.60;;;;;;7403591;19;20339;-72
2023/09/09 02:33:15;;;;;;;15.48;11.90;;;21.50;89.60;;;;;;7398932;19;19999;-72
2023/09/09 02:35:44;;;;;;;18.25;12.65;;;21.50;89.50;;;;;;7399391;19;19919;-72
2023/09/09 02:38:10;;;;;;;15.13;12.38;;;21.40;89.40;;;;;;7394993;19;20019;-72
2023/09/09 02:40:36;;;;;;;15.20;13.07;;;21.40;89.60;;;;;;7398897;19;19962;-71
2023/09/09 02:43:02;;;;;;;20.00;15.27;;;21.40;89.50;;;;;;7398445;19;19926;-72
2023/09/09 02:45:28;;;;;;;16.90;12.85;;;21.30;89.20;;;;;;7394800;19;19918;-73
2023/09/09 02:47:54;;;;;;;15.88;13.20;;;21.30;89.70;;;;;;7395462;19;19936;-73
2023/09/09 02:50:20;;;;;;;15.07;12.57;;;21.30;89.30;;;;;;7398243;19;19926;-73
2023/09/09 02:52:49;;;;;;;14.32;11.50;;;21.20;89.20;;;;;;7399831;19;19925;-72
2023/09/09 02:55:15;;;;;;;15.50;11.40;;;21.20;89.20;;;;;;7399423;19;19915;-73
2023/09/09 02:57:41;;;;;;;15.07;11.90;;;21.20;89.00;;;;;;7397376;19;19919;-73
2023/09/09 03:00:10;;;;;;;13.00;10.88;;;21.20;89.00;;;;;;7394256;19;20025;-73
2023/09/09 03:02:36;;;;;;;14.27;12.02;;;21.20;89.10;;;;;;7399637;19;19931;-72
2023/09/09 03:05:03;;;;;;;15.98;13.43;;;21.20;89.30;;;;;;7399418;19;19926;-73
2023/09/09 03:07:29;;;;;;;18.77;14.18;;;21.20;89.30;;;;;;7398563;19;19951;-74
2023/09/09 03:09:55;;;;;;;18.33;13.98;;;21.20;90.20;;;;;;7400292;19;19919;-73
2023/09/09 03:12:22;;;;;;;16.15;12.80;;;21.20;90.30;;;;;;7399759;19;19918;-73
2023/09/09 03:14:47;;;;;;;;;;;21.20;90.30;;;;;;7400583;19;19919;-72
2023/09/09 03:17:14;;;;;;;17.40;12.60;;;21.10;90.40;;;;;;7399729;19;19966;-73
2023/09/09 03:19:39;;;;;;;17.23;14.25;;;21.10;90.70;;;;;;7400672;19;20343;-72
2023/09/09 03:22:05;;;;;;;16.50;13.30;;;21.10;90.90;;;;;;7398701;19;19960;-72
2023/09/09 03:24:31;;;;;;;15.65;13.05;;;21.10;90.90;;;;;;7398268;19;20018;-72
2023/09/09 03:26:57;;;;;;;17.05;14.30;;;21.10;91.00;;;;;;7399992;19;19914;-72
2023/09/09 03:29:23;;;;;;;18.70;13.70;;;21.10;91.20;;;;;;7394066;19;19952;-72
2023/09/09 03:31:49;;;;;;;18.83;15.15;;;21.10;91.10;;;;;;7399701;19;19923;-71
2023/09/09 03:34:14;;;;;;;18.67;14.23;;;21.00;91.20;;;;;;7366347;19;19930;-72
2023/09/09 03:36:42;;;;;;;16.77;13.27;;;20.90;91.50;;;;;;7400125;19;19928;-72
2023/09/09 03:39:08;;;;;;;17.33;13.77;;;21.00;91.40;;;;;;7395803;19;19918;-72
2023/09/09 03:41:34;;;;;;;17.80;14.23;;;21.00;91.50;;;;;;7398898;19;19926;-73
2023/09/09 03:44:00;;;;;;;18.63;14.43;;;21.10;91.50;;;;;;7399354;19;19929;-72
2023/09/09 03:46:26;;;;;;;18.38;13.60;;;21.00;91.40;;;;;;7394305;19;19922;-72
2023/09/09 03:48:52;;;;;;;20.70;15.07;;;21.00;91.60;;;;;;7396727;19;19925;-72
2023/09/09 03:51:19;;;;;;;17.80;13.48;;;21.10;91.50;;;;;;7396991;19;19922;-72
2023/09/09 03:53:45;;;;;;;16.67;12.88;;;21.10;91.50;;;;;;7398880;19;19942;-72
2023/09/09 03:56:11;;;;;;;17.48;13.95;;;21.10;91.30;;;;;;7396379;19;20054;-72
2023/09/09 03:58:37;;;;;;;21.98;15.48;;;21.10;91.30;;;;;;7404943;19;19927;-72
2023/09/09 04:01:09;;;;;;;20.58;15.70;;;21.00;91.70;;;;;;7403292;19;19921;-72
2023/09/09 04:03:37;;;;;;;20.80;16.67;;;21.00;92.00;;;;;;7406028;19;20336;-73
2023/09/09 04:06:06;;;;;;;17.20;13.55;;;21.10;92.20;;;;;;7401283;19;19910;-73
2023/09/09 04:08:32;;;;;;;17.65;14.75;;;21.00;92.10;;;;;;7407031;19;19911;-73
2023/09/09 04:10:58;;;;;;;19.73;14.15;;;21.00;92.30;;;;;;7404677;19;19926;-71
2023/09/09 04:13:24;;;;;;;23.83;17.98;;;20.90;92.40;;;;;;7403491;19;20303;-71
2023/09/09 04:15:56;;;;;;;24.83;18.15;;;20.90;92.60;;;;;;7404818;19;19926;-72
2023/09/09 04:18:22;;;;;;;;;;;20.90;92.70;;;;;;7404096;19;20599;-72
2023/09/09 04:20:48;;;;;;;22.88;16.75;;;20.90;92.80;;;;;;7404704;19;19918;-72
2023/09/09 04:23:14;;;;;;;32.83;24.08;;;20.90;92.70;;;;;;7402774;19;19946;-72
2023/09/09 04:25:40;;;;;;;26.80;20.92;;;20.90;93.10;;;;;;7404531;19;19926;-72
2023/09/09 04:28:09;;;;;;;31.05;21.80;;;20.90;93.10;;;;;;7402871;19;19915;-72
2023/09/09 04:30:38;;;;;;;28.13;22.17;;;20.90;93.40;;;;;;7401873;19;20007;-73
2023/09/09 04:33:05;;;;;;;26.20;21.10;;;20.90;93.30;;;;;;7402838;19;19935;-71
2023/09/09 04:35:31;;;;;;;25.95;17.63;;;20.90;93.30;;;;;;7401094;19;19922;-72
2023/09/09 04:37:57;;;;;;;24.20;18.95;;;20.80;93.20;;;;;;7404433;19;19914;-73
2023/09/09 04:40:23;;;;;;;25.85;20.52;;;20.90;93.40;;;;;;7398859;19;19947;-71
2023/09/09 04:42:48;;;;;;;27.73;21.85;;;20.90;93.50;;;;;;7404817;19;19915;-72
2023/09/09 04:45:14;;;;;;;26.98;21.25;;;20.90;93.50;;;;;;7368942;19;19925;-71
2023/09/09 04:47:40;;;;;;;25.58;19.92;;;20.90;93.50;;;;;;7403968;19;20002;-72
2023/09/09 04:50:06;;;;;;;27.55;20.17;;;20.90;93.60;;;;;;7401394;19;19939;-73
2023/09/09 04:52:32;;;;;;;;;;;20.80;93.50;;;;;;7404443;19;19919;-73
2023/09/09 04:54:58;;;;;;;24.45;18.30;;;20.80;93.50;;;;;;7402289;19;19918;-72
2023/09/09 04:57:24;;;;;;;25.42;18.98;;;20.70;93.50;;;;;;7402563;19;19922;-72
2023/09/09 04:59:49;;;;;;;23.73;17.88;;;20.70;93.50;;;;;;7401434;19;19948;-72
2023/09/09 05:02:15;;;;;;;24.17;18.17;;;20.60;93.50;;;;;;7402793;19;20293;-72
2023/09/09 05:04:41;;;;;;;26.40;19.15;;;20.60;93.70;;;;;;7399867;19;20368;-73
2023/09/09 05:07:08;;;;;;;24.83;19.52;;;20.70;93.70;;;;;;7401228;19;19934;-72
2023/09/09 05:09:34;;;;;;;23.98;17.90;;;20.70;93.70;;;;;;7402434;19;20243;-72
2023/09/09 05:11:59;;;;;;;22.00;18.65;;;20.80;93.70;;;;;;7404198;19;19939;-73
2023/09/09 05:14:25;;;;;;;24.50;18.40;;;20.80;93.70;;;;;;7399964;19;20316;-72
2023/09/09 05:16:51;;;;;;;23.23;17.60;;;20.80;93.90;;;;;;7404194;19;19934;-71
2023/09/09 05:19:17;;;;;;;21.15;17.20;;;20.80;94.00;;;;;;7397775;19;19918;-72
2023/09/09 05:21:43;;;;;;;23.13;17.17;;;20.80;94.00;;;;;;7402357;19;19925;-72
2023/09/09 05:24:08;;;;;;;20.15;16.52;;;20.80;94.00;;;;;;7398736;19;19981;-72
2023/09/09 05:26:34;;;;;;;25.67;19.55;;;20.80;94.10;;;;;;7402570;19;19923;-72
2023/09/09 05:29:01;;;;;;;21.38;16.75;;;20.70;94.00;;;;;;7402999;19;19921;-73
2023/09/09 05:31:27;;;;;;;24.20;16.52;;;20.70;94.10;;;;;;7399509;19;19915;-72
2023/09/09 05:33:53;;;;;;;21.05;17.02;;;20.60;94.10;;;;;;7401622;19;19942;-71
2023/09/09 05:36:19;;;;;;;20.45;16.27;;;20.70;94.30;;;;;;7401452;19;20330;-72
2023/09/09 05:38:44;;;;;;;21.67;18.30;;;20.80;94.20;;;;;;7402545;19;19923;-74
2023/09/09 05:41:10;;;;;;;52.60;35.70;;;20.80;94.10;;;;;;7400722;19;21123;-72
2023/09/09 05:43:36;;;;;;;24.88;19.35;;;20.80;94.10;;;;;;7401464;19;19922;-73
2023/09/09 05:46:02;;;;;;;24.90;18.85;;;20.80;94.00;;;;;;7402425;19;19921;-72
2023/09/09 05:48:27;;;;;;;24.88;19.10;;;20.70;94.10;;;;;;7400539;19;19915;-73
2023/09/09 05:50:55;;;;;;;28.45;19.10;;;20.80;94.10;;;;;;7400656;19;20006;-72
2023/09/09 05:53:21;;;;;;;22.65;18.75;;;20.80;94.00;;;;;;7400084;19;19922;-72
2023/09/09 05:55:47;;;;;;;26.75;19.95;;;20.80;93.90;;;;;;7398879;19;19918;-72
2023/09/09 05:58:13;;;;;;;25.95;21.65;;;20.90;93.90;;;;;;7398502;19;19922;-73
2023/09/09 06:00:39;;;;;;;26.88;21.73;;;21.00;93.90;;;;;;7402018;19;19925;-73
2023/09/09 06:03:05;;;;;;;29.70;21.17;;;21.10;93.70;;;;;;7401019;19;19944;-72
2023/09/09 06:05:31;;;;;;;26.55;18.77;;;21.10;93.60;;;;;;7401659;19;20323;-73
2023/09/09 06:07:57;;;;;;;25.17;19.88;;;21.10;93.40;;;;;;7403790;19;19942;-72
2023/09/09 06:10:23;;;;;;;28.65;21.27;;;21.20;93.30;;;;;;7399481;19;19939;-72
2023/09/09 06:12:49;;;;;;;24.17;19.70;;;21.20;93.10;;;;;;7402349;19;19918;-73
2023/09/09 06:15:15;;;;;;;26.08;19.77;;;21.20;93.00;;;;;;7398582;19;19929;-72
2023/09/09 06:17:41;;;;;;;27.65;21.27;;;21.30;92.90;;;;;;7402728;19;19918;-73
2023/09/09 06:20:08;;;;;;;26.25;20.35;;;21.40;92.70;;;;;;7397147;19;20331;-73
2023/09/09 06:22:34;;;;;;;;;;;21.40;92.60;;;;;;7403939;19;19923;-73
2023/09/09 06:25:01;;;;;;;25.38;19.83;;;21.40;92.50;;;;;;7400441;19;19930;-72
2023/09/09 06:27:27;;;;;;;24.25;19.33;;;21.50;92.40;;;;;;7400931;19;20735;-72
2023/09/09 06:29:52;;;;;;;26.27;20.65;;;21.50;92.30;;;;;;7400816;19;19919;-72
2023/09/09 06:32:18;;;;;;;24.88;20.27;;;21.50;92.10;;;;;;7399525;19;19922;-73
2023/09/09 06:34:44;;;;;;;27.65;19.70;;;21.60;92.00;;;;;;7400188;19;20071;-72
2023/09/09 06:37:10;;;;;;;25.90;20.23;;;21.60;91.90;;;;;;7397631;19;19930;-72
2023/09/09 06:39:36;;;;;;;24.05;19.33;;;21.70;91.70;;;;;;7400432;19;19937;-72
2023/09/09 06:42:02;;;;;;;25.00;18.80;;;21.70;91.50;;;;;;7400023;19;19930;-72
2023/09/09 06:44:28;;;;;;;25.58;19.50;;;21.80;91.20;;;;;;7400097;19;19929;-71
2023/09/09 06:46:54;;;;;;;23.77;19.25;;;21.80;91.10;;;;;;7400812;19;20284;-72
2023/09/09 06:49:19;;;;;;;24.83;19.77;;;21.90;90.70;;;;;;7400202;19;19942;-74
2023/09/09 06:51:47;;;;;;;26.40;19.48;;;22.00;90.60;;;;;;7400640;19;20829;-73
2023/09/09 06:54:12;;;;;;;23.75;18.55;;;22.00;90.20;;;;;;7397206;19;20681;-73
2023/09/09 06:56:38;;;;;;;24.08;18.92;;;22.10;90.00;;;;;;7400432;19;19910;-73
2023/09/09 06:59:05;;;;;;;22.23;17.42;;;22.10;88.80;;;;;;7399592;19;19934;-73
2023/09/09 07:01:31;;;;;;;21.02;17.88;;;22.10;88.20;;;;;;7399705;19;19922;-71
2023/09/09 07:03:57;;;;;;;20.65;16.75;;;22.10;87.70;;;;;;7401409;19;19922;-72
2023/09/09 07:06:23;;;;;;;;;;;22.30;86.80;;;;;;7401172;19;19960;-73
2023/09/09 07:08:49;;;;;;;24.88;16.92;;;22.30;85.60;;;;;;7401374;19;19910;-73
2023/09/09 07:11:15;;;;;;;20.38;15.82;;;22.30;85.30;;;;;;7389066;19;19911;-73
2023/09/09 07:13:42;;;;;;;20.75;16.38;;;22.30;84.90;;;;;;7400275;19;19923;-74
2023/09/09 07:16:08;;;;;;;20.45;16.02;;;22.40;84.40;;;;;;7397438;19;19922;-73
2023/09/09 07:18:33;;;;;;;21.30;16.92;;;22.40;84.00;;;;;;7367768;19;19938;-73
2023/09/09 07:20:59;;;;;;;20.73;16.20;;;22.50;83.30;;;;;;7398737;19;20338;-72
2023/09/09 07:23:25;;;;;;;19.40;16.80;;;22.60;83.10;;;;;;7399332;19;19934;-73
2023/09/09 07:25:52;;;;;;;21.50;16.27;;;22.70;82.40;;;;;;7399537;19;19950;-73
2023/09/09 07:28:17;;;;;;;;;;;22.80;82.10;;;;;;7402785;19;19931;-73
2023/09/09 07:30:43;;;;;;;19.35;16.83;;;22.90;81.90;;;;;;7399548;19;19919;-74
2023/09/09 07:33:09;;;;;;;22.65;16.20;;;23.00;80.20;;;;;;7403115;19;19918;-72
2023/09/09 07:35:35;;;;;;;21.65;16.70;;;23.00;80.60;;;;;;7406228;19;19918;-73
2023/09/09 07:38:06;;;;;;;19.52;16.27;;;23.00;79.90;;;;;;7405333;19;19945;-72
2023/09/09 07:40:32;;;;;;;18.67;14.50;;;23.10;79.70;;;;;;7404060;19;20622;-72
2023/09/09 07:42:58;;;;;;;25.10;15.43;;;23.20;80.20;;;;;;7403212;19;20003;-73
2023/09/09 07:45:24;;;;;;;15.93;14.27;;;23.20;80.50;;;;;;7403182;19;19986;-72
2023/09/09 07:47:50;;;;;;;17.85;13.88;;;23.30;80.10;;;;;;7405396;19;19926;-73
2023/09/09 07:50:16;;;;;;;18.05;15.27;;;23.30;79.60;;;;;;7401752;19;19919;-73
2023/09/09 07:52:42;;;;;;;17.95;14.93;;;23.40;79.40;;;;;;7398983;19;19910;-73
2023/09/09 07:55:08;;;;;;;20.27;15.63;;;23.50;78.90;;;;;;7397937;19;19919;-72
2023/09/09 07:57:33;;;;;;;17.98;14.65;;;23.50;78.50;;;;;;7400769;19;19923;-72
2023/09/09 08:00:00;;;;;;;17.98;14.38;;;23.70;78.60;;;;;;7401438;19;19949;-73
2023/09/09 08:02:27;;;;;;;17.15;14.98;;;23.80;77.40;;;;;;7404029;19;19919;-73
2023/09/09 08:04:52;;;;;;;16.02;13.70;;;23.80;77.40;;;;;;7405133;19;20670;-75
2023/09/09 08:07:18;;;;;;;15.77;13.02;;;23.80;77.50;;;;;;7405132;19;19922;-73
2023/09/09 08:09:44;;;;;;;16.23;12.65;;;23.70;78.10;;;;;;7403807;19;19928;-73
2023/09/09 08:12:10;;;;;;;17.30;12.38;;;23.60;77.80;;;;;;7402205;19;19935;-73
2023/09/09 08:14:36;;;;;;;15.13;12.82;;;23.70;77.40;;;;;;7405738;19;19922;-73
2023/09/09 08:17:02;;;;;;;15.02;12.35;;;23.90;76.70;;;;;;7404356;19;19946;-73
2023/09/09 08:19:27;;;;;;;16.13;13.73;;;24.00;76.30;;;;;;7405349;19;19982;-73
2023/09/09 08:21:53;;;;;;;16.35;13.75;;;23.90;76.20;;;;;;7406140;19;19926;-73
2023/09/09 08:24:20;;;;;;;17.67;13.55;;;23.90;76.20;;;;;;7402534;19;20343;-73
2023/09/09 08:26:46;;;;;;;17.00;12.45;;;24.10;75.50;;;;;;7405412;19;19929;-73
2023/09/09 08:29:11;;;;;;;18.23;14.55;;;24.20;74.30;;;;;;7402351;19;19914;-73
2023/09/09 08:31:37;;;;;;;39.83;26.75;;;24.10;75.00;;;;;;7405643;19;19935;-72
2023/09/09 08:34:03;;;;;;;15.95;13.15;;;24.30;74.60;;;;;;7402179;19;21114;-74
2023/09/09 08:36:29;;;;;;;21.02;15.73;;;24.50;73.90;;;;;;7403861;19;19990;-74
2023/09/09 08:38:56;;;;;;;18.70;15.15;;;24.70;72.90;;;;;;7404851;19;19935;-73
2023/09/09 08:41:45;;;;;;;16.17;13.70;;;24.70;72.20;;;;;;7370509;19;20367;-74
2023/09/09 08:44:20;;;;;;;17.85;13.75;;;24.70;72.20;;;;;;7402193;19;19919;-74
2023/09/09 08:46:47;;;;;;;15.32;11.88;;;24.70;71.70;;;;;;7404646;19;20409;-73
2023/09/09 08:49:15;;;;;;;17.25;14.35;;;24.80;72.10;;;;;;7403244;19;19925;-73
2023/09/09 08:51:52;;;;;;;17.65;13.68;;;25.00;71.20;;;;;;7402782;19;19922;-73
2023/09/09 08:54:18;;;;;;;16.42;14.50;;;25.20;69.60;;;;;;7403088;19;19914;-73
2023/09/09 08:56:45;;;;;;;15.63;13.80;;;25.40;67.80;;;;;;7404451;19;19926;-72
2023/09/09 08:59:12;;;;;;;18.60;15.05;;;25.70;66.20;;;;;;7401619;19;19915;-73
2023/09/09 09:01:40;;;;;;;17.58;13.48;;;25.70;65.40;;;;;;7402137;19;20003;-73
2023/09/09 09:04:06;;;;;;;17.40;12.63;;;25.90;64.80;;;;;;7401697;19;20286;-72
2023/09/09 09:06:33;;;;;;;15.98;14.27;;;26.00;64.30;;;;;;7402016;19;19922;-74
2023/09/09 09:08:59;;;;;;;19.00;15.65;;;26.00;63.50;;;;;;7404533;19;19931;-73
2023/09/09 09:11:25;;;;;;;17.63;15.18;;;26.10;63.00;;;;;;7402658;19;20264;-73
2023/09/09 09:13:51;;;;;;;;;;;26.20;62.60;;;;;;7407222;19;19966;-73
2023/09/09 09:16:18;;;;;;;18.42;13.93;;;26.30;62.40;;;;;;7401731;19;20400;-73
2023/09/09 09:18:44;;;;;;;16.23;13.38;;;26.20;62.00;;;;;;7401060;19;19922;-72
2023/09/09 09:21:10;;;;;;;18.70;15.27;;;26.50;61.90;;;;;;7404082;19;20333;-73
2023/09/09 09:23:46;;;;;;;17.15;14.35;;;26.30;60.40;;;;;;7401534;19;19925;-72
2023/09/09 09:26:31;;;;;;;19.33;15.73;;;26.70;60.60;;;;;;7402493;19;19950;-73
2023/09/09 09:29:05;;;;;;;16.05;14.35;;;26.60;59.80;;;;;;7400315;19;19922;-73
2023/09/09 09:31:31;;;;;;;14.68;12.80;;;26.60;58.40;;;;;;7400582;19;19930;-74
2023/09/09 09:33:59;;;;;;;13.75;12.23;;;26.70;57.60;;;;;;7402387;19;19936;-74
2023/09/09 09:36:26;;;;;;;14.85;12.68;;;26.90;57.00;;;;;;7400179;19;19922;-73
2023/09/09 09:38:53;;;;;;;17.08;14.18;;;27.00;57.20;;;;;;7401786;19;19922;-74
2023/09/09 09:41:20;;;;;;;14.63;12.85;;;26.90;58.00;;;;;;7399695;19;19925;-73
2023/09/09 09:43:47;;;;;;;17.85;13.52;;;26.70;59.20;;;;;;7401445;19;19923;-73
2023/09/09 09:46:21;;;;;;;15.63;10.80;;;26.70;59.40;;;;;;7400782;19;20354;-73
2023/09/09 09:48:48;;;;;;;14.70;11.80;;;26.80;59.10;;;;;;7399158;19;19918;-72
2023/09/09 09:51:13;;;;;;;12.90;11.20;;;26.80;58.70;;;;;;7380527;19;20019;-73
2023/09/09 09:53:48;;;;;;;11.32;10.05;;;26.80;59.10;;;;;;7397232;19;19946;-73
2023/09/09 09:56:19;;;;;;;12.52;8.68;;;27.10;58.50;;;;;;7396448;19;20624;-73
2023/09/09 09:58:46;;;;;;;11.90;9.32;;;27.10;57.90;;;;;;7399057;19;19922;-73
2023/09/09 10:01:13;;;;;;;11.70;10.10;;;27.30;58.00;;;;;;7397823;19;19982;-73
2023/09/09 10:03:55;;;;;;;11.82;10.23;;;27.30;56.80;;;;;;7403036;19;19914;-73
2023/09/09 10:06:28;;;;;;;13.38;10.18;;;26.90;57.00;;;;;;7393743;19;19911;-74
2023/09/09 10:09:09;;;;;;;13.05;8.25;;;27.10;57.20;;;;;;7402331;19;20367;-73
2023/09/09 10:11:50;;;;;;;11.02;9.00;;;27.20;57.40;;;;;;7399397;19;19930;-73
2023/09/09 10:14:20;;;;;;;12.25;9.70;;;26.90;58.00;;;;;;7398011;19;19918;-73
2023/09/09 10:16:48;;;;;;;9.80;8.80;;;26.30;59.50;;;;;;7395282;19;19930;-73
2023/09/09 10:19:15;;;;;;;13.98;9.00;;;26.40;59.90;;;;;;7400528;19;20002;-73
2023/09/09 10:21:42;;;;;;;9.95;7.95;;;26.90;58.90;;;;;;7401149;19;19923;-74
2023/09/09 10:24:09;;;;;;;10.38;8.60;;;27.60;57.40;;;;;;7401557;19;20345;-73
2023/09/09 10:26:37;;;;;;;10.73;8.98;;;27.90;56.10;;;;;;7401907;19;20457;-74
2023/09/09 10:29:03;;;;;;;9.88;8.73;;;27.90;55.10;;;;;;7399900;19;19925;-74
2023/09/09 10:31:30;;;;;;;11.82;8.52;;;28.00;54.70;;;;;;7399486;19;19925;-74
2023/09/09 10:33:59;;;;;;;11.32;7.95;;;28.10;53.20;;;;;;7398991;19;19950;-72
2023/09/09 10:36:27;;;;;;;10.15;8.13;;;28.00;53.70;;;;;;7400277;19;19915;-73
2023/09/09 10:38:58;;;;;;;9.05;7.72;;;28.20;53.10;;;;;;7402375;19;19951;-72
2023/09/09 10:41:24;;;;;;;10.73;8.40;;;28.90;51.70;;;;;;7399881;19;19914;-72
2023/09/09 10:43:50;;;;;;;9.70;8.57;;;28.70;51.80;;;;;;7399409;19;19997;-74
2023/09/09 10:46:16;;;;;;;8.55;6.85;;;28.60;51.60;;;;;;7399858;19;19918;-73
2023/09/09 10:48:44;;;;;;;8.95;7.78;;;28.80;51.50;;;;;;7401550;19;20334;-73
2023/09/09 10:51:15;;;;;;;9.05;7.47;;;29.20;50.50;;;;;;7398513;19;19938;-73
2023/09/09 10:53:41;;;;;;;8.88;7.78;;;29.20;51.10;;;;;;7399228;19;20351;-72
2023/09/09 10:56:15;;;;;;;9.65;7.40;;;29.50;49.60;;;;;;7400242;19;19930;-74
2023/09/09 10:58:43;;;;;;;9.52;7.22;;;29.70;49.10;;;;;;7399295;19;19915;-73
2023/09/09 11:01:21;;;;;;;9.68;7.00;;;29.70;48.80;;;;;;7396775;19;20289;-74
2023/09/09 11:03:48;;;;;;;8.57;6.90;;;29.80;47.40;;;;;;7400642;19;19918;-73
2023/09/09 11:06:25;;;;;;;9.18;7.93;;;30.00;48.00;;;;;;7398788;19;19923;-74
2023/09/09 11:08:55;;;;;;;8.93;7.82;;;30.10;46.90;;;;;;7400621;19;19922;-73
2023/09/09 11:11:37;;;;;;;8.80;7.90;;;30.40;47.80;;;;;;7398561;19;19986;-73
2023/09/09 11:14:07;;;;;;;8.50;6.90;;;30.70;45.60;;;;;;7399699;19;19978;-74
2023/09/09 11:16:38;;;;;;;9.20;8.32;;;30.90;45.50;;;;;;7398221;19;19918;-73
2023/09/09 11:19:06;;;;;;;9.43;8.45;;;30.50;45.10;;;;;;7396973;19;19999;-73
2023/09/09 11:21:34;;;;;;;10.95;9.00;;;29.60;47.30;;;;;;7400904;19;19931;-73
2023/09/09 11:24:02;;;;;;;8.25;7.30;;;30.00;47.50;;;;;;7398104;19;19981;-73
2023/09/09 11:26:28;;;;;;;8.82;7.93;;;30.40;45.90;;;;;;7398797;19;19954;-73
2023/09/09 11:28:54;;;;;;;10.40;8.43;;;30.20;46.60;;;;;;7398046;19;19973;-73
2023/09/09 11:31:21;;;;;;;9.55;6.53;;;30.50;45.70;;;;;;7397661;19;20678;-73
2023/09/09 11:33:47;;;;;;;9.95;7.55;;;30.30;45.40;;;;;;7400539;19;19979;-73
2023/09/09 11:36:17;;;;;;;8.68;7.57;;;30.90;45.40;;;;;;7398879;19;19926;-74
2023/09/09 11:38:44;;;;;;;8.73;7.82;;;31.00;45.00;;;;;;7398243;19;19911;-73
2023/09/09 11:41:20;;;;;;;10.07;9.18;;;31.70;43.80;;;;;;7396706;19;19919;-74
2023/09/09 11:44:05;;;;;;;9.07;7.45;;;31.60;42.80;;;;;;7398452;19;19918;-74
2023/09/09 11:46:38;;;;;;;8.90;7.95;;;31.00;43.20;;;;;;7397486;19;19914;-73
2023/09/09 11:49:05;;;;;;;10.82;8.88;;;31.30;43.90;;;;;;7365019;19;19927;-73
2023/09/09 11:51:31;;;;;;;8.80;8.00;;;31.70;42.50;;;;;;7399098;19;19922;-73
2023/09/09 11:54:01;;;;;;;8.88;7.43;;;31.60;42.90;;;;;;7397847;19;20288;-73
2023/09/09 11:56:29;;;;;;;8.93;7.97;;;31.40;43.00;;;;;;7343735;19;19927;-73
2023/09/09 11:58:55;;;;;;;9.10;8.20;;;31.40;44.00;;;;;;7397594;19;19978;-75
2023/09/09 12:01:22;;;;;;;8.82;8.02;;;31.60;43.60;;;;;;7398210;19;19922;-73
2023/09/09 12:03:51;;;;;;;9.80;8.90;;;31.80;43.10;;;;;;7400123;19;19922;-73
2023/09/09 12:06:22;;;;;;;9.75;8.85;;;31.70;43.30;;;;;;7397976;19;19926;-73
2023/09/09 12:08:49;;;;;;;8.75;7.93;;;31.60;44.20;;;;;;7397771;19;19918;-72
2023/09/09 12:11:17;;;;;;;10.18;8.38;;;32.30;43.80;;;;;;7396152;19;20254;-73
2023/09/09 12:13:44;;;;;;;9.55;8.30;;;32.40;42.50;;;;;;7399712;19;20365;-75
2023/09/09 12:16:11;;;;;;;9.55;8.45;;;31.40;43.80;;;;;;7397123;19;19915;-74
2023/09/09 12:18:36;;;;;;;8.48;7.68;;;31.30;44.70;;;;;;7402262;19;19919;-73
2023/09/09 12:21:11;;;;;;;9.10;8.18;;;31.10;45.00;;;;;;7403737;19;19925;-73
2023/09/09 12:23:39;;;;;;;10.43;9.48;;;32.00;43.50;;;;;;7405100;19;20332;-74
2023/09/09 12:26:14;;;;;;;10.20;8.95;;;31.80;43.60;;;;;;7401803;19;19922;-74
2023/09/09 12:28:42;;;;;;;8.32;7.32;;;30.80;45.60;;;;;;7405490;19;20009;-73
2023/09/09 12:31:09;;;;;;;7.30;6.57;;;32.00;43.90;;;;;;7404805;19;19939;-74
2023/09/09 12:33:45;;;;;;;9.13;8.25;;;32.80;42.40;;;;;;7405092;19;19914;-73